createdAt,value
2023-03-15T00:00:07.566Z,42.95
2023-03-15T00:00:29.629Z,42.75
2023-03-15T00:01:03.583Z,42.77
2023-03-15T00:01:32.468Z,43.00
2023-03-15T00:02:00.574Z,42.74
2023-03-15T00:02:54.628Z,42.90
2023-03-15T00:03:20.314Z,42.79
2023-03-15T00:03:43.631Z,42.84
2023-03-15T00:04:12.409Z,42.85
2023-03-15T00:04:49.404Z,42.82
2023-03-15T00:05:16.252Z,42.62
2023-03-15T00:06:19.509Z,42.66
2023-03-15T00:06:47.689Z,43.26
2023-03-15T00:07:19.015Z,43.11
2023-03-15T00:08:05.566Z,42.90
2023-03-15T00:08:55.329Z,42.93
2023-03-15T00:09:21.538Z,43.41
2023-03-15T00:09:49.570Z,42.86
2023-03-15T00:10:18.130Z,42.97
2023-03-15T00:10:47.024Z,43.05
2023-03-15T00:11:13.955Z,43.36
2023-03-15T00:11:38.444Z,43.22
2023-03-15T00:12:13.838Z,43.12
2023-03-15T00:12:39.653Z,42.79
2023-03-15T00:13:14.992Z,42.73
2023-03-15T00:13:55.244Z,42.83
2023-03-15T00:14:22.432Z,42.70
2023-03-15T00:14:48.419Z,42.51
2023-03-15T00:15:17.028Z,42.47
2023-03-15T00:15:46.188Z,42.43
2023-03-15T00:16:11.052Z,42.71
2023-03-15T00:16:34.459Z,42.56
2023-03-15T00:17:16.038Z,42.46
2023-03-15T00:18:00.995Z,42.79
2023-03-15T00:19:44.911Z,42.69
2023-03-15T00:20:32.394Z,42.95
2023-03-15T00:21:13.257Z,43.41
2023-03-15T00:21:35.180Z,43.25
2023-03-15T00:21:57.984Z,43.21
2023-03-15T00:22:19.583Z,43.31
2023-03-15T00:22:41.427Z,43.33
2023-03-15T00:23:03.116Z,43.47
2023-03-15T00:23:26.438Z,43.57
2023-03-15T00:23:48.520Z,43.39
2023-03-15T00:24:11.130Z,43.35
2023-03-15T00:24:32.757Z,43.36
2023-03-15T00:24:55.570Z,43.52
2023-03-15T00:25:17.186Z,43.49
2023-03-15T00:25:38.857Z,43.71
2023-03-15T00:26:00.491Z,43.79
2023-03-15T00:26:24.620Z,43.73
2023-03-15T00:26:47.581Z,43.69
2023-03-15T00:27:09.617Z,43.84
2023-03-15T00:27:32.689Z,43.43
2023-03-15T00:27:54.438Z,43.40
2023-03-15T00:28:17.501Z,43.71
2023-03-15T00:28:40.796Z,44.06
2023-03-15T00:29:02.511Z,44.06
2023-03-15T00:29:26.827Z,43.60
2023-03-15T00:29:50.155Z,43.76
2023-03-15T00:30:12.357Z,43.63
2023-03-15T00:30:34.418Z,43.55
2023-03-15T00:31:07.285Z,43.45
2023-03-15T00:31:30.801Z,43.51
2023-03-15T00:31:53.480Z,43.58
2023-03-15T00:32:16.746Z,43.57
2023-03-15T00:32:39.386Z,43.72
2023-03-15T00:33:01.070Z,43.80
2023-03-15T00:33:22.699Z,43.96
2023-03-15T00:33:45.150Z,43.91
2023-03-15T00:34:07.750Z,43.77
2023-03-15T00:34:29.393Z,43.42
2023-03-15T00:34:54.630Z,43.21
2023-03-15T00:35:18.315Z,43.22
2023-03-15T00:35:42.373Z,43.23
2023-03-15T00:36:05.907Z,43.15
2023-03-15T00:36:27.593Z,43.11
2023-03-15T00:36:53.822Z,43.05
2023-03-15T00:37:16.714Z,43.20
2023-03-15T00:37:38.877Z,43.18
2023-03-15T00:38:00.794Z,42.99
2023-03-15T00:38:22.473Z,43.01
2023-03-15T00:38:45.177Z,43.02
2023-03-15T00:39:07.093Z,42.94
2023-03-15T00:39:28.726Z,43.04
2023-03-15T00:39:50.378Z,43.08
2023-03-15T00:40:12.959Z,43.22
2023-03-15T00:40:40.460Z,43.28
2023-03-15T00:41:05.516Z,43.18
2023-03-15T00:41:27.122Z,43.33
2023-03-15T00:41:48.973Z,43.59
2023-03-15T00:42:11.923Z,43.52
2023-03-15T00:42:35.975Z,43.33
2023-03-15T00:42:58.229Z,43.29
2023-03-15T00:43:19.797Z,43.30
2023-03-15T00:43:46.345Z,43.43
2023-03-15T00:44:08.385Z,43.46
2023-03-15T00:44:31.450Z,43.43
2023-03-15T00:44:54.544Z,43.27
2023-03-15T00:45:17.229Z,43.07
2023-03-15T00:45:39.967Z,43.04
2023-03-15T00:46:02.317Z,43.21
2023-03-15T00:46:24.031Z,43.18
2023-03-15T00:46:45.689Z,43.10
2023-03-15T00:47:08.590Z,42.98
2023-03-15T00:47:31.410Z,43.22
2023-03-15T00:47:55.053Z,43.14
2023-03-15T00:48:16.772Z,43.15
2023-03-15T00:48:40.768Z,43.13
2023-03-15T00:49:04.235Z,43.13
2023-03-15T00:49:25.932Z,43.15
2023-03-15T00:49:48.154Z,43.50
2023-03-15T00:50:11.423Z,43.54
2023-03-15T00:50:33.124Z,43.29
2023-03-15T00:51:02.389Z,43.07
2023-03-15T00:51:24.563Z,43.20
2023-03-15T00:51:48.325Z,42.97
2023-03-15T00:52:12.538Z,42.90
2023-03-15T00:52:35.911Z,42.78
2023-03-15T00:52:57.686Z,42.86
2023-03-15T00:53:22.559Z,42.88
2023-03-15T00:53:46.299Z,42.99
2023-03-15T00:54:07.872Z,43.15
2023-03-15T00:54:29.636Z,42.97
2023-03-15T00:54:54.921Z,42.94
2023-03-15T00:55:19.191Z,43.21
2023-03-15T00:55:43.068Z,42.93
2023-03-15T00:56:06.504Z,42.86
2023-03-15T00:56:30.194Z,43.09
2023-03-15T00:56:53.915Z,43.10
2023-03-15T00:57:15.606Z,43.49
2023-03-15T00:57:37.180Z,43.66
2023-03-15T00:58:00.009Z,43.74
2023-03-15T00:58:24.274Z,44.34
2023-03-15T00:58:48.797Z,43.94
2023-03-15T00:59:10.721Z,43.85
2023-03-15T00:59:34.791Z,43.85
2023-03-15T00:59:58.577Z,43.88
2023-03-15T01:00:24.196Z,43.82
2023-03-15T01:00:47.384Z,43.64
2023-03-15T01:01:14.763Z,43.72
2023-03-15T01:01:44.580Z,43.65
2023-03-15T01:02:06.451Z,43.71
2023-03-15T01:02:28.179Z,43.87
2023-03-15T01:02:55.501Z,43.77
2023-03-15T01:03:20.458Z,43.88
2023-03-15T01:03:55.525Z,43.92
2023-03-15T01:04:51.197Z,43.82
2023-03-15T01:05:59.425Z,43.84
2023-03-15T01:06:30.207Z,44.16
2023-03-15T01:07:07.136Z,44.13
2023-03-15T01:08:06.396Z,44.05
2023-03-15T01:08:44.512Z,44.47
2023-03-15T01:09:48.625Z,44.68
2023-03-15T01:10:20.619Z,44.59
2023-03-15T01:10:43.815Z,44.53
2023-03-15T01:11:13.664Z,44.59
2023-03-15T01:11:37.121Z,44.54
2023-03-15T01:11:59.206Z,44.86
2023-03-15T01:12:20.838Z,44.75
2023-03-15T01:12:53.538Z,44.81
2023-03-15T01:13:15.134Z,44.81
2023-03-15T01:14:23.092Z,44.82
2023-03-15T01:14:45.054Z,44.91
2023-03-15T01:15:08.835Z,45.13
2023-03-15T01:15:30.498Z,45.08
2023-03-15T01:15:54.877Z,45.50
2023-03-15T01:16:16.563Z,45.32
2023-03-15T01:16:38.214Z,45.40
2023-03-15T01:16:59.917Z,45.46
2023-03-15T01:17:22.819Z,45.73
2023-03-15T01:17:44.737Z,45.79
2023-03-15T01:18:06.412Z,45.69
2023-03-15T01:18:29.418Z,45.78
2023-03-15T01:18:53.873Z,45.82
2023-03-15T01:19:16.103Z,45.57
2023-03-15T01:19:37.761Z,45.63
2023-03-15T01:19:59.944Z,45.54
2023-03-15T01:20:21.806Z,45.75
2023-03-15T01:20:46.320Z,45.67
2023-03-15T01:21:10.992Z,45.65
2023-03-15T01:21:32.687Z,45.38
2023-03-15T01:21:54.359Z,45.60
2023-03-15T01:22:16.252Z,45.42
2023-03-15T01:22:38.889Z,45.41
2023-03-15T01:23:01.975Z,45.42
2023-03-15T01:23:24.028Z,45.60
2023-03-15T01:23:45.713Z,45.65
2023-03-15T01:24:13.115Z,45.72
2023-03-15T01:24:34.754Z,46.16
2023-03-15T01:24:59.205Z,46.04
2023-03-15T01:25:20.887Z,46.05
2023-03-15T01:25:43.494Z,46.30
2023-03-15T01:26:07.179Z,46.45
2023-03-15T01:26:29.039Z,45.96
2023-03-15T01:26:51.701Z,45.96
2023-03-15T01:27:13.692Z,46.15
2023-03-15T01:27:36.689Z,46.40
2023-03-15T01:27:58.379Z,46.32
2023-03-15T01:28:19.956Z,46.22
2023-03-15T01:28:42.018Z,46.13
2023-03-15T01:29:04.646Z,46.07
2023-03-15T01:29:28.261Z,46.05
2023-03-15T01:29:50.386Z,45.97
2023-03-15T01:30:12.608Z,46.03
2023-03-15T01:30:36.210Z,46.00
2023-03-15T01:30:59.868Z,46.28
2023-03-15T01:31:23.533Z,46.32
2023-03-15T01:31:45.440Z,46.05
2023-03-15T01:32:08.504Z,46.05
2023-03-15T01:32:30.419Z,46.09
2023-03-15T01:32:52.080Z,46.31
2023-03-15T01:33:14.058Z,46.33
2023-03-15T01:33:36.642Z,46.20
2023-03-15T01:33:59.480Z,46.32
2023-03-15T01:34:23.356Z,46.24
2023-03-15T01:34:44.973Z,46.39
2023-03-15T01:35:07.738Z,46.21
2023-03-15T01:35:30.427Z,46.20
2023-03-15T01:35:59.139Z,46.42
2023-03-15T01:36:21.149Z,46.40
2023-03-15T01:36:42.820Z,46.32
2023-03-15T01:37:05.460Z,46.09
2023-03-15T01:37:34.442Z,46.42
2023-03-15T01:37:56.289Z,46.62
2023-03-15T01:38:18.954Z,46.66
2023-03-15T01:38:40.674Z,46.75
2023-03-15T01:39:03.426Z,46.57
2023-03-15T01:39:33.962Z,46.63
2023-03-15T01:39:57.037Z,46.63
2023-03-15T01:40:19.211Z,46.61
2023-03-15T01:40:42.404Z,46.63
2023-03-15T01:41:04.700Z,46.62
2023-03-15T01:41:28.786Z,46.79
2023-03-15T01:41:51.832Z,46.80
2023-03-15T01:42:13.486Z,46.88
2023-03-15T01:42:51.306Z,47.41
2023-03-15T01:43:20.719Z,47.20
2023-03-15T01:43:47.250Z,47.06
2023-03-15T01:44:13.787Z,47.10
2023-03-15T01:44:56.443Z,47.10
2023-03-15T01:46:06.857Z,47.49
2023-03-15T01:46:34.248Z,47.90
2023-03-15T01:47:06.772Z,48.32
2023-03-15T01:47:32.776Z,48.58
2023-03-15T01:47:54.485Z,48.75
2023-03-15T01:48:17.890Z,48.55
2023-03-15T01:48:44.506Z,48.34
2023-03-15T01:49:09.537Z,48.46
2023-03-15T01:49:34.969Z,48.78
2023-03-15T01:50:03.531Z,49.03
2023-03-15T01:50:25.432Z,49.70
2023-03-15T01:50:47.432Z,50.00
2023-03-15T01:51:16.798Z,50.07
2023-03-15T01:51:43.801Z,50.24
2023-03-15T01:52:10.015Z,50.34
2023-03-15T01:52:52.432Z,50.25
2023-03-15T01:53:14.970Z,50.08
2023-03-15T01:53:40.683Z,49.90
2023-03-15T01:54:06.866Z,50.10
2023-03-15T01:54:32.249Z,49.93
2023-03-15T01:55:01.154Z,50.07
2023-03-15T01:55:24.062Z,50.10
2023-03-15T01:55:59.386Z,50.08
2023-03-15T01:56:30.564Z,49.81
2023-03-15T01:56:58.240Z,49.78
2023-03-15T01:57:24.096Z,49.88
2023-03-15T01:57:49.785Z,49.86
2023-03-15T01:58:13.498Z,49.84
2023-03-15T01:58:41.250Z,49.76
2023-03-15T01:59:08.674Z,50.08
2023-03-15T01:59:33.582Z,50.20
2023-03-15T02:00:03.741Z,50.94
2023-03-15T02:00:35.873Z,51.14
2023-03-15T02:01:03.245Z,51.51
2023-03-15T02:01:27.755Z,51.72
2023-03-15T02:01:52.309Z,51.52
2023-03-15T02:02:15.098Z,51.59
2023-03-15T02:02:46.482Z,51.83
2023-03-15T02:03:18.586Z,51.40
2023-03-15T02:03:47.570Z,51.15
2023-03-15T02:04:16.465Z,51.63
2023-03-15T02:04:46.738Z,51.97
2023-03-15T02:05:13.997Z,52.11
2023-03-15T02:05:45.934Z,51.92
2023-03-15T02:06:11.264Z,52.00
2023-03-15T02:07:00.096Z,52.18
2023-03-15T02:07:27.072Z,52.13
2023-03-15T02:07:50.712Z,51.91
2023-03-15T02:08:17.719Z,52.12
2023-03-15T02:08:47.666Z,52.11
2023-03-15T02:09:15.012Z,52.22
2023-03-15T02:09:51.249Z,51.96
2023-03-15T02:10:17.109Z,51.66
2023-03-15T02:10:44.050Z,51.61
2023-03-15T02:11:06.410Z,51.53
2023-03-15T02:11:29.772Z,51.36
2023-03-15T02:11:52.606Z,51.30
2023-03-15T02:12:14.399Z,51.48
2023-03-15T02:12:40.483Z,51.55
2023-03-15T02:13:04.244Z,51.46
2023-03-15T02:13:28.805Z,51.42
2023-03-15T02:13:55.004Z,51.37
2023-03-15T02:14:17.078Z,51.28
2023-03-15T02:14:40.922Z,51.22
2023-03-15T02:15:07.704Z,51.25
2023-03-15T02:15:32.415Z,50.93
2023-03-15T02:15:56.628Z,50.79
2023-03-15T02:16:29.972Z,50.94
2023-03-15T02:17:00.521Z,50.87
2023-03-15T02:17:34.926Z,50.82
2023-03-15T02:18:00.082Z,50.86
2023-03-15T02:18:22.226Z,50.67
2023-03-15T02:18:48.896Z,50.80
2023-03-15T02:19:22.197Z,50.84
2023-03-15T02:19:53.013Z,50.65
2023-03-15T02:20:27.388Z,50.44
2023-03-15T02:20:57.278Z,50.67
2023-03-15T02:21:32.266Z,50.78
2023-03-15T02:22:02.663Z,50.84
2023-03-15T02:22:37.530Z,50.88
2023-03-15T02:23:04.324Z,51.10
2023-03-15T02:23:28.382Z,50.78
2023-03-15T02:23:59.669Z,50.28
2023-03-15T02:24:32.111Z,50.73
2023-03-15T02:25:03.099Z,50.38
2023-03-15T02:25:37.597Z,50.08
2023-03-15T02:26:09.512Z,50.04
2023-03-15T02:26:42.202Z,49.90
2023-03-15T02:27:04.085Z,50.05
2023-03-15T02:27:30.531Z,50.08
2023-03-15T02:27:52.269Z,50.18
2023-03-15T02:28:17.465Z,50.26
2023-03-15T02:28:40.014Z,50.47
2023-03-15T02:29:01.716Z,50.49
2023-03-15T02:29:26.637Z,50.34
2023-03-15T02:29:48.333Z,50.51
2023-03-15T02:30:12.690Z,50.36
2023-03-15T02:30:35.457Z,50.19
2023-03-15T02:30:58.137Z,50.18
2023-03-15T02:31:20.709Z,50.24
2023-03-15T02:31:45.401Z,50.04
2023-03-15T02:32:08.799Z,50.29
2023-03-15T02:32:31.041Z,50.31
2023-03-15T02:32:52.788Z,50.03
2023-03-15T02:33:20.188Z,50.69
2023-03-15T02:33:44.058Z,50.51
2023-03-15T02:34:07.632Z,50.34
2023-03-15T02:34:29.720Z,50.30
2023-03-15T02:34:52.605Z,50.17
2023-03-15T02:35:23.814Z,50.06
2023-03-15T02:35:47.542Z,49.82
2023-03-15T02:36:20.868Z,49.99
2023-03-15T02:36:43.808Z,49.77
2023-03-15T02:37:06.961Z,49.68
2023-03-15T02:37:28.591Z,49.80
2023-03-15T02:37:51.404Z,49.96
2023-03-15T02:38:13.022Z,49.73
2023-03-15T02:38:34.623Z,49.80
2023-03-15T02:38:56.976Z,49.94
2023-03-15T02:39:21.266Z,50.33
2023-03-15T02:39:42.846Z,50.15
2023-03-15T02:40:17.969Z,50.38
2023-03-15T02:40:40.070Z,50.36
2023-03-15T02:41:03.697Z,50.26
2023-03-15T02:41:29.856Z,50.42
2023-03-15T02:41:54.539Z,50.32
2023-03-15T02:42:17.659Z,50.40
2023-03-15T02:42:42.458Z,50.44
2023-03-15T02:43:08.897Z,50.24
2023-03-15T02:43:32.985Z,50.34
2023-03-15T02:44:00.027Z,50.34
2023-03-15T02:44:26.075Z,50.43
2023-03-15T02:44:49.158Z,50.65
2023-03-15T02:45:12.428Z,50.62
2023-03-15T02:45:37.188Z,50.37
2023-03-15T02:45:59.721Z,50.41
2023-03-15T02:46:22.468Z,50.45
2023-03-15T02:46:47.698Z,50.44
2023-03-15T02:47:13.756Z,50.42
2023-03-15T02:47:35.522Z,50.23
2023-03-15T02:47:57.319Z,50.41
2023-03-15T02:48:21.340Z,50.44
2023-03-15T02:48:44.223Z,50.26
2023-03-15T02:49:08.260Z,50.55
2023-03-15T02:49:32.782Z,50.52
2023-03-15T02:49:55.725Z,50.52
2023-03-15T02:50:17.979Z,50.43
2023-03-15T02:50:39.878Z,50.60
2023-03-15T02:51:03.100Z,50.97
2023-03-15T02:51:29.385Z,51.04
2023-03-15T02:51:52.135Z,50.76
2023-03-15T02:52:14.124Z,50.98
2023-03-15T02:52:35.960Z,51.17
2023-03-15T02:52:59.024Z,51.02
2023-03-15T02:53:20.643Z,51.26
2023-03-15T02:53:43.574Z,51.48
2023-03-15T02:54:05.367Z,51.60
2023-03-15T02:54:27.950Z,51.81
2023-03-15T02:54:49.749Z,52.14
2023-03-15T02:55:11.447Z,52.01
2023-03-15T02:55:33.355Z,51.94
2023-03-15T02:55:56.005Z,51.64
2023-03-15T02:56:17.738Z,51.52
2023-03-15T02:56:39.410Z,51.58
2023-03-15T02:57:01.593Z,51.50
2023-03-15T02:57:24.942Z,51.46
2023-03-15T02:57:50.790Z,51.18
2023-03-15T02:58:16.282Z,51.43
2023-03-15T02:58:51.682Z,51.49
2023-03-15T02:59:36.469Z,51.65
2023-03-15T03:00:17.028Z,51.66
2023-03-15T03:00:53.637Z,51.72
2023-03-15T03:01:21.382Z,51.92
2023-03-15T03:02:08.322Z,52.09
2023-03-15T03:02:33.292Z,51.81
2023-03-15T03:03:01.781Z,51.78
2023-03-15T03:03:27.248Z,51.50
2023-03-15T03:04:02.132Z,51.89
2023-03-15T03:04:29.422Z,51.79
2023-03-15T03:04:53.819Z,51.82
2023-03-15T03:05:21.173Z,51.70
2023-03-15T03:05:48.892Z,51.82
2023-03-15T03:06:18.354Z,52.03
2023-03-15T03:06:49.417Z,52.06
2023-03-15T03:07:21.100Z,51.86
2023-03-15T03:07:57.497Z,51.84
2023-03-15T03:08:22.817Z,52.13
2023-03-15T03:08:47.153Z,52.53
2023-03-15T03:09:11.219Z,52.13
2023-03-15T03:09:34.716Z,51.95
2023-03-15T03:09:56.960Z,51.79
2023-03-15T03:10:22.037Z,51.75
2023-03-15T03:10:51.404Z,52.12
2023-03-15T03:11:13.675Z,51.92
2023-03-15T03:11:35.807Z,51.87
2023-03-15T03:11:57.679Z,51.48
2023-03-15T03:12:20.662Z,51.58
2023-03-15T03:12:43.182Z,51.67
2023-03-15T03:13:06.205Z,51.81
2023-03-15T03:13:31.013Z,51.62
2023-03-15T03:13:53.743Z,51.52
2023-03-15T03:14:15.906Z,51.12
2023-03-15T03:14:37.627Z,51.00
2023-03-15T03:15:05.925Z,51.02
2023-03-15T03:15:28.572Z,50.93
2023-03-15T03:15:58.393Z,50.78
2023-03-15T03:16:23.155Z,50.99
2023-03-15T03:16:45.299Z,50.90
2023-03-15T03:17:08.557Z,50.83
2023-03-15T03:17:30.434Z,51.30
2023-03-15T03:17:52.031Z,51.42
2023-03-15T03:18:13.860Z,51.15
2023-03-15T03:18:38.107Z,51.08
2023-03-15T03:19:01.326Z,51.06
2023-03-15T03:19:26.042Z,51.00
2023-03-15T03:19:48.764Z,51.00
2023-03-15T03:20:15.608Z,51.05
2023-03-15T03:20:40.992Z,50.93
2023-03-15T03:21:04.178Z,50.90
2023-03-15T03:21:25.867Z,50.52
2023-03-15T03:21:48.776Z,50.53
2023-03-15T03:22:13.519Z,50.65
2023-03-15T03:22:36.084Z,50.63
2023-03-15T03:22:58.491Z,50.70
2023-03-15T03:23:22.262Z,50.83
2023-03-15T03:23:46.207Z,50.71
2023-03-15T03:24:10.024Z,50.75
2023-03-15T03:24:32.305Z,50.77
2023-03-15T03:24:57.222Z,50.99
2023-03-15T03:25:19.137Z,50.79
2023-03-15T03:25:42.343Z,50.63
2023-03-15T03:26:12.090Z,50.86
2023-03-15T03:26:35.143Z,50.80
2023-03-15T03:26:57.961Z,50.96
2023-03-15T03:27:22.702Z,50.85
2023-03-15T03:27:44.535Z,51.59
2023-03-15T03:28:10.800Z,51.39
2023-03-15T03:28:33.150Z,51.25
2023-03-15T03:28:56.275Z,51.26
2023-03-15T03:29:20.092Z,51.39
2023-03-15T03:29:45.232Z,51.44
2023-03-15T03:30:10.178Z,51.39
2023-03-15T03:30:36.311Z,51.14
2023-03-15T03:30:58.490Z,51.22
2023-03-15T03:31:23.986Z,51.22
2023-03-15T03:31:47.108Z,51.13
2023-03-15T03:32:09.698Z,51.03
2023-03-15T03:32:32.744Z,51.43
2023-03-15T03:32:55.507Z,51.70
2023-03-15T03:33:17.233Z,51.72
2023-03-15T03:33:42.281Z,51.45
2023-03-15T03:34:04.048Z,51.37
2023-03-15T03:34:26.639Z,51.15
2023-03-15T03:34:48.557Z,51.39
2023-03-15T03:35:16.051Z,51.19
2023-03-15T03:35:37.945Z,51.45
2023-03-15T03:36:04.002Z,51.15
2023-03-15T03:36:25.886Z,51.09
2023-03-15T03:36:48.484Z,50.91
2023-03-15T03:37:15.107Z,51.10
2023-03-15T03:37:54.614Z,51.39
2023-03-15T03:38:24.453Z,51.36
2023-03-15T03:38:51.473Z,51.26
2023-03-15T03:39:13.232Z,51.25
2023-03-15T03:39:35.767Z,51.35
2023-03-15T03:39:59.669Z,51.32
2023-03-15T03:40:21.461Z,51.58
2023-03-15T03:40:43.153Z,51.16
2023-03-15T03:41:05.414Z,51.24
2023-03-15T03:41:29.372Z,51.04
2023-03-15T03:41:51.291Z,50.95
2023-03-15T03:42:14.345Z,51.02
2023-03-15T03:42:36.108Z,51.04
2023-03-15T03:42:58.632Z,50.87
2023-03-15T03:43:22.630Z,50.62
2023-03-15T03:43:44.542Z,50.90
2023-03-15T03:44:06.340Z,51.14
2023-03-15T03:44:28.204Z,50.89
2023-03-15T03:44:50.619Z,51.07
2023-03-15T03:45:16.387Z,51.04
2023-03-15T03:45:40.187Z,51.20
2023-03-15T03:46:03.752Z,51.14
2023-03-15T03:46:28.452Z,51.44
2023-03-15T03:46:51.613Z,51.09
2023-03-15T03:47:13.311Z,51.25
2023-03-15T03:47:35.015Z,51.03
2023-03-15T03:47:56.674Z,51.28
2023-03-15T03:48:19.279Z,51.42
2023-03-15T03:48:40.994Z,51.54
2023-03-15T03:49:02.914Z,51.45
2023-03-15T03:49:24.847Z,51.90
2023-03-15T03:49:47.524Z,51.71
2023-03-15T03:50:10.802Z,51.77
2023-03-15T03:50:32.517Z,51.56
2023-03-15T03:50:57.403Z,51.51
2023-03-15T03:51:20.068Z,51.42
2023-03-15T03:51:41.618Z,51.62
2023-03-15T03:52:04.707Z,51.73
2023-03-15T03:52:28.984Z,52.34
2023-03-15T03:52:59.528Z,52.19
2023-03-15T03:53:26.307Z,51.95
2023-03-15T03:53:47.932Z,51.86
2023-03-15T03:54:09.557Z,51.80
2023-03-15T03:54:32.192Z,51.82
2023-03-15T03:54:56.378Z,51.78
2023-03-15T03:55:18.574Z,51.74
2023-03-15T03:55:42.627Z,51.68
2023-03-15T03:56:05.178Z,51.72
2023-03-15T03:56:26.869Z,51.90
2023-03-15T03:56:50.797Z,51.99
2023-03-15T03:57:12.746Z,52.06
2023-03-15T03:57:35.929Z,52.35
2023-03-15T03:58:00.206Z,52.27
2023-03-15T03:58:53.254Z,52.26
2023-03-15T03:59:24.182Z,52.13
2023-03-15T03:59:54.043Z,51.76
2023-03-15T04:00:17.781Z,52.11
2023-03-15T04:00:40.073Z,51.83
2023-03-15T04:01:04.934Z,51.93
2023-03-15T04:01:32.188Z,51.58
2023-03-15T04:01:54.150Z,51.68
2023-03-15T04:02:15.900Z,51.88
2023-03-15T04:02:43.779Z,52.13
2023-03-15T04:03:08.477Z,52.36
2023-03-15T04:03:33.264Z,52.10
2023-03-15T04:04:01.472Z,52.20
2023-03-15T04:04:26.216Z,52.16
2023-03-15T04:04:50.302Z,52.10
2023-03-15T04:05:14.035Z,52.10
2023-03-15T04:05:36.228Z,51.93
2023-03-15T04:05:59.626Z,52.11
2023-03-15T04:06:24.147Z,52.24
2023-03-15T04:06:46.202Z,52.88
2023-03-15T04:07:09.928Z,52.74
2023-03-15T04:07:34.276Z,52.70
2023-03-15T04:07:56.895Z,52.77
2023-03-15T04:08:19.014Z,52.45
2023-03-15T04:08:41.030Z,52.76
2023-03-15T04:09:04.981Z,52.84
2023-03-15T04:09:37.217Z,52.52
2023-03-15T04:09:59.691Z,53.15
2023-03-15T04:10:26.963Z,52.85
2023-03-15T04:10:53.129Z,52.67
2023-03-15T04:11:17.538Z,53.03
2023-03-15T04:11:43.830Z,53.13
2023-03-15T04:12:06.340Z,53.14
2023-03-15T04:12:29.272Z,53.12
2023-03-15T04:12:52.474Z,52.96
2023-03-15T04:13:14.348Z,53.12
2023-03-15T04:13:36.050Z,52.86
2023-03-15T04:14:02.541Z,52.41
2023-03-15T04:14:25.696Z,52.54
2023-03-15T04:14:48.283Z,52.62
2023-03-15T04:15:11.937Z,52.76
2023-03-15T04:15:35.056Z,52.45
2023-03-15T04:15:57.520Z,52.44
2023-03-15T04:16:24.689Z,52.88
2023-03-15T04:16:56.399Z,53.08
2023-03-15T04:17:19.318Z,53.14
2023-03-15T04:17:40.967Z,52.85
2023-03-15T04:18:05.683Z,52.74
2023-03-15T04:18:34.552Z,52.38
2023-03-15T04:18:57.245Z,52.44
2023-03-15T04:19:19.494Z,52.65
2023-03-15T04:19:41.109Z,52.59
2023-03-15T04:20:06.932Z,52.24
2023-03-15T04:20:35.783Z,51.79
2023-03-15T04:20:58.151Z,51.78
2023-03-15T04:21:23.009Z,51.65
2023-03-15T04:21:52.990Z,51.57
2023-03-15T04:22:22.662Z,51.66
2023-03-15T04:23:15.388Z,51.85
2023-03-15T04:23:52.678Z,51.69
2023-03-15T04:24:42.174Z,51.50
2023-03-15T04:25:09.942Z,51.63
2023-03-15T04:25:49.832Z,51.54
2023-03-15T04:26:28.529Z,51.22
2023-03-15T04:27:18.197Z,51.23
2023-03-15T04:27:59.222Z,51.45
2023-03-15T04:28:39.038Z,51.59
2023-03-15T04:29:31.025Z,51.48
2023-03-15T04:30:12.782Z,51.58
2023-03-15T04:30:43.682Z,51.53
2023-03-15T04:31:27.471Z,51.55
2023-03-15T04:32:09.479Z,51.57
2023-03-15T04:32:42.568Z,51.52
2023-03-15T04:33:12.208Z,51.63
2023-03-15T04:33:55.273Z,51.65
2023-03-15T04:34:43.632Z,51.96
2023-03-15T04:35:29.941Z,52.19
2023-03-15T04:36:08.258Z,52.20
2023-03-15T04:36:54.656Z,52.48
2023-03-15T04:37:33.853Z,52.79
2023-03-15T04:38:10.003Z,52.36
2023-03-15T04:38:51.837Z,52.21
2023-03-15T04:39:30.663Z,52.27
2023-03-15T04:40:19.646Z,52.16
2023-03-15T04:40:48.878Z,52.14
2023-03-15T04:41:30.062Z,51.74
2023-03-15T04:42:00.851Z,51.62
2023-03-15T04:42:41.050Z,51.71
2023-03-15T04:43:10.933Z,51.74
2023-03-15T04:43:44.910Z,51.61
2023-03-15T04:44:30.420Z,51.20
2023-03-15T04:45:12.345Z,51.04
2023-03-15T04:46:03.974Z,51.15
2023-03-15T04:46:36.030Z,51.29
2023-03-15T04:47:20.675Z,51.20
2023-03-15T04:47:52.774Z,51.15
2023-03-15T04:48:32.429Z,51.44
2023-03-15T04:49:15.266Z,50.77
2023-03-15T04:49:55.305Z,50.42
2023-03-15T04:50:26.061Z,50.41
2023-03-15T04:51:10.605Z,50.35
2023-03-15T04:51:49.287Z,50.45
2023-03-15T04:52:22.655Z,50.37
2023-03-15T04:53:07.878Z,50.29
2023-03-15T04:53:52.132Z,50.36
2023-03-15T04:54:23.343Z,50.31
2023-03-15T04:54:52.761Z,50.30
2023-03-15T04:55:37.171Z,49.95
2023-03-15T04:56:31.269Z,49.61
2023-03-15T04:57:07.107Z,49.64
2023-03-15T04:57:47.463Z,49.73
2023-03-15T04:58:28.739Z,49.51
2023-03-15T04:59:10.666Z,49.32
2023-03-15T05:00:04.181Z,49.87
2023-03-15T05:00:34.598Z,49.42
2023-03-15T05:01:02.020Z,49.30
2023-03-15T05:01:44.588Z,49.64
2023-03-15T05:02:23.358Z,49.54
2023-03-15T05:02:56.451Z,49.49
2023-03-15T05:03:34.424Z,49.50
2023-03-15T05:04:24.668Z,49.52
2023-03-15T05:05:09.006Z,49.26
2023-03-15T05:05:49.667Z,49.50
2023-03-15T05:06:27.615Z,49.57
2023-03-15T05:07:00.523Z,49.61
2023-03-15T05:07:45.430Z,49.56
2023-03-15T05:08:27.407Z,48.92
2023-03-15T05:09:07.615Z,49.00
2023-03-15T05:09:46.620Z,49.10
2023-03-15T05:10:31.612Z,49.27
2023-03-15T05:11:12.636Z,49.35
2023-03-15T05:11:47.387Z,49.38
2023-03-15T05:12:25.617Z,49.55
2023-03-15T05:13:07.123Z,49.42
2023-03-15T05:13:52.002Z,49.37
2023-03-15T05:14:34.191Z,49.48
2023-03-15T05:14:56.124Z,49.39
2023-03-15T05:15:37.669Z,49.35
2023-03-15T05:16:10.770Z,49.36
2023-03-15T05:16:44.469Z,49.49
2023-03-15T05:17:15.382Z,49.41
2023-03-15T05:17:56.672Z,49.49
2023-03-15T05:18:38.671Z,49.47
2023-03-15T05:19:04.538Z,49.35
2023-03-15T05:19:53.993Z,49.33
2023-03-15T05:20:38.253Z,49.53
2023-03-15T05:21:14.483Z,49.38
2023-03-15T05:21:48.501Z,49.28
2023-03-15T05:22:49.964Z,49.32
2023-03-15T05:23:27.296Z,49.22
2023-03-15T05:23:58.838Z,49.28
2023-03-15T05:24:25.855Z,49.29
2023-03-15T05:25:01.091Z,49.36
2023-03-15T05:25:35.180Z,49.29
2023-03-15T05:25:58.011Z,49.40
2023-03-15T05:26:39.053Z,49.50
2023-03-15T05:27:04.390Z,49.57
2023-03-15T05:27:33.889Z,49.47
2023-03-15T05:28:05.497Z,49.29
2023-03-15T05:28:40.520Z,49.13
2023-03-15T05:29:09.689Z,49.08
2023-03-15T05:29:54.432Z,49.09
2023-03-15T05:30:32.193Z,49.30
2023-03-15T05:31:02.615Z,49.40
2023-03-15T05:31:44.176Z,49.30
2023-03-15T05:32:26.932Z,49.30
2023-03-15T05:33:05.999Z,49.68
2023-03-15T05:34:04.360Z,49.33
2023-03-15T05:34:55.380Z,49.51
2023-03-15T05:35:38.598Z,49.58
2023-03-15T05:36:25.644Z,49.72
2023-03-15T05:36:55.655Z,49.92
2023-03-15T05:37:26.963Z,49.90
2023-03-15T05:38:27.214Z,49.74
2023-03-15T05:39:17.734Z,49.81
2023-03-15T05:39:57.567Z,49.99
2023-03-15T05:40:39.544Z,49.78
2023-03-15T05:41:13.640Z,50.02
2023-03-15T05:42:04.993Z,50.20
2023-03-15T05:42:46.698Z,50.26
2023-03-15T05:43:31.931Z,50.33
2023-03-15T05:44:23.006Z,49.82
2023-03-15T05:44:57.328Z,50.03
2023-03-15T05:45:39.820Z,50.04
2023-03-15T05:46:22.650Z,50.20
2023-03-15T05:46:50.308Z,50.08
2023-03-15T05:47:41.904Z,50.06
2023-03-15T05:48:18.047Z,49.96
2023-03-15T05:49:14.845Z,49.71
2023-03-15T05:49:47.356Z,49.57
2023-03-15T05:50:18.776Z,49.60
2023-03-15T05:50:51.892Z,49.73
2023-03-15T05:51:22.358Z,49.91
2023-03-15T05:52:14.084Z,49.98
2023-03-15T05:52:58.352Z,50.13
2023-03-15T05:53:29.181Z,49.98
2023-03-15T05:54:11.408Z,49.85
2023-03-15T05:55:04.269Z,49.78
2023-03-15T05:55:39.896Z,49.75
2023-03-15T05:56:32.950Z,50.19
2023-03-15T05:57:13.164Z,49.86
2023-03-15T05:57:53.566Z,49.73
2023-03-15T05:58:26.956Z,49.81
2023-03-15T05:59:09.835Z,50.06
2023-03-15T06:00:02.175Z,49.88
2023-03-15T06:00:36.661Z,49.67
2023-03-15T06:01:07.092Z,49.92
2023-03-15T06:01:54.907Z,50.15
2023-03-15T06:02:24.093Z,50.28
2023-03-15T06:03:05.722Z,50.09
2023-03-15T06:03:36.438Z,50.20
2023-03-15T06:04:07.531Z,50.00
2023-03-15T06:04:30.499Z,49.91
2023-03-15T06:04:53.041Z,49.89
2023-03-15T06:05:19.419Z,50.16
2023-03-15T06:05:41.951Z,50.22
2023-03-15T06:06:09.327Z,49.84
2023-03-15T06:06:35.909Z,49.71
2023-03-15T06:06:59.764Z,49.74